Главная страница
METAR-TAF:

METAR-TAF

Аэропорты :

Форт Мак-Мюррей, Альберта, Канада

широта: 56-39N, долгота: 111-13W, высота над уровнем моря: 369 м

Текущие метеонаблюдения

Эта сводка был подготовлена 16 минут назад, в 03:00 UTC
Ветер 11 Узел от юго-западный с порывами до 16 Узел
Температура 20°C
Влажность 40%
Давление 1009 hPa
Видимость: 6.4 км
ясное небо
мгла

METAR: CYMM 180300Z AUTO 22011G16KT 4SM HZ CLR 20/06 A2979 RMK SLP095 DENSITY ALT 2100FT

Время: 21:16 (03:16 UTC)

Прогноз

Эта сводка был подготовлена 2 часа и 38 минут назад, в 00:38 UTC
Прогноз действительный с 18-го 01 UTC до 18-го 13 UTC
Ветер 10 Узел от западный-юго-западный
Видимость: 9.7 км
ясное небо
дым
временами
С 18-го 01 UTC до 18-го 13 UTC
Видимость: 6.4 км
дым, мгла
изменения
С 18-го 04 UTC до 18-го 06 UTC
Ветер 8 Узел от западный

TAF: CYMM 180038Z 1801/1813 24010KT 6SM FU SKC TEMPO 1801/1813 4SM FU HZ BECMG 1804/1806 28008KT RMK FCST BASED ON AUTO OBS. NXT FCST BY 180700Z

Метеонаблюдения и прогнозы для более 4000 аэропортов (сводки METAR и TAF).

Имеющиеся станции представлены на карте желтыми и красными точками.

Чтобы увидеть название станции, наведите на нее мышь.

Затем щелкните, чтобы увидеть метеонаблюдения и метеопрогнозы.

Управление картой: чтобы увеличить масштаб, щелкните зеленые кнопки с черным крестиком; чтобы уменьшить масштаб, щелкните зеленую кнопку с тире; для просмотра соседних карт щелкайте зеленые стрелки.


METAR-TAF: